<?xml version="1.0" encoding="UTF-8" standalone="no" ?>
<gpx xmlns="http://www.topografix.com/GPX/1/1" xmlns:xsi="http://www.w3.org/2001/XMLSchema-instance" xsi:schemaLocation="http://www.topografix.com/GPX/1/1 http://www.topografix.com/GPX/1/1/gpx.xsd" version="1.1" creator="VisuGPX - https://www.visugpx.com">
  <metadata>
    <name>Tour de vtt au départ de Anse</name>
    <desc><![CDATA[Petit tour dans le beaujolais, super chemins dans les bois d'alix.]]></desc>
  </metadata>
  <trk>
    <name><![CDATA[20180703230310-XDBKC]]></name>
    <trkseg>
      <trkpt lat="45.95141" lon="4.72739">
        <ele>169</ele>
        <time>2018-07-01T06:46:39Z</time>
      </trkpt>
      <trkpt lat="45.95144" lon="4.72738">
        <ele>169</ele>
        <time>2018-07-01T06:47:00Z</time>
      </trkpt>
      <trkpt lat="45.95141" lon="4.72739">
        <ele>169</ele>
        <time>2018-07-01T06:47:20Z</time>
      </trkpt>
      <trkpt lat="45.95141" lon="4.7274">
        <ele>169</ele>
        <time>2018-07-01T06:47:41Z</time>
      </trkpt>
      <trkpt lat="45.95141" lon="4.7274">
        <ele>169</ele>
        <time>2018-07-01T06:48:02Z</time>
      </trkpt>
      <trkpt lat="45.95135" lon="4.72737">
        <ele>169</ele>
        <time>2018-07-01T06:48:22Z</time>
      </trkpt>
      <trkpt lat="45.95128" lon="4.72747">
        <ele>169</ele>
        <time>2018-07-01T06:48:42Z</time>
      </trkpt>
      <trkpt lat="45.95113" lon="4.72754">
        <ele>171</ele>
        <time>2018-07-01T06:49:02Z</time>
      </trkpt>
      <trkpt lat="45.95098" lon="4.72784">
        <ele>171</ele>
        <time>2018-07-01T06:49:23Z</time>
      </trkpt>
      <trkpt lat="45.95116" lon="4.72808">
        <ele>172</ele>
        <time>2018-07-01T06:49:43Z</time>
      </trkpt>
      <trkpt lat="45.95102" lon="4.72834">
        <ele>174</ele>
        <time>2018-07-01T06:50:03Z</time>
      </trkpt>
      <trkpt lat="45.95161" lon="4.72925">
        <ele>169</ele>
        <time>2018-07-01T06:50:24Z</time>
      </trkpt>
      <trkpt lat="45.95203" lon="4.72981">
        <ele>169</ele>
        <time>2018-07-01T06:50:44Z</time>
      </trkpt>
      <trkpt lat="45.95234" lon="4.73044">
        <ele>172</ele>
        <time>2018-07-01T06:51:04Z</time>
      </trkpt>
      <trkpt lat="45.95288" lon="4.73134">
        <ele>169</ele>
        <time>2018-07-01T06:51:25Z</time>
      </trkpt>
      <trkpt lat="45.95342" lon="4.73219">
        <ele>166</ele>
        <time>2018-07-01T06:51:46Z</time>
      </trkpt>
      <trkpt lat="45.95412" lon="4.73295">
        <ele>166</ele>
        <time>2018-07-01T06:52:06Z</time>
      </trkpt>
      <trkpt lat="45.95479" lon="4.73362">
        <ele>169</ele>
        <time>2018-07-01T06:52:27Z</time>
      </trkpt>
      <trkpt lat="45.95558" lon="4.73362">
        <ele>170</ele>
        <time>2018-07-01T06:52:48Z</time>
      </trkpt>
      <trkpt lat="45.95631" lon="4.73358">
        <ele>169</ele>
        <time>2018-07-01T06:53:09Z</time>
      </trkpt>
      <trkpt lat="45.95704" lon="4.73357">
        <ele>168</ele>
        <time>2018-07-01T06:53:30Z</time>
      </trkpt>
      <trkpt lat="45.95802" lon="4.73403">
        <ele>170</ele>
        <time>2018-07-01T06:53:50Z</time>
      </trkpt>
      <trkpt lat="45.95847" lon="4.7328">
        <ele>171</ele>
        <time>2018-07-01T06:54:10Z</time>
      </trkpt>
      <trkpt lat="45.95888" lon="4.73168">
        <ele>171</ele>
        <time>2018-07-01T06:54:31Z</time>
      </trkpt>
      <trkpt lat="45.95923" lon="4.73052">
        <ele>171</ele>
        <time>2018-07-01T06:54:51Z</time>
      </trkpt>
      <trkpt lat="45.95896" lon="4.72987">
        <ele>169</ele>
        <time>2018-07-01T06:55:11Z</time>
      </trkpt>
      <trkpt lat="45.95888" lon="4.72898">
        <ele>167</ele>
        <time>2018-07-01T06:55:32Z</time>
      </trkpt>
      <trkpt lat="45.95927" lon="4.72922">
        <ele>168</ele>
        <time>2018-07-01T06:55:52Z</time>
      </trkpt>
      <trkpt lat="45.95987" lon="4.72936">
        <ele>171</ele>
        <time>2018-07-01T06:56:12Z</time>
      </trkpt>
      <trkpt lat="45.96068" lon="4.72925">
        <ele>170</ele>
        <time>2018-07-01T06:56:33Z</time>
      </trkpt>
      <trkpt lat="45.96097" lon="4.72798">
        <ele>169</ele>
        <time>2018-07-01T06:56:54Z</time>
      </trkpt>
      <trkpt lat="45.9611" lon="4.72672">
        <ele>168</ele>
        <time>2018-07-01T06:57:14Z</time>
      </trkpt>
      <trkpt lat="45.96142" lon="4.72554">
        <ele>170</ele>
        <time>2018-07-01T06:57:35Z</time>
      </trkpt>
      <trkpt lat="45.96166" lon="4.72436">
        <ele>169</ele>
        <time>2018-07-01T06:57:55Z</time>
      </trkpt>
      <trkpt lat="45.96198" lon="4.72305">
        <ele>169</ele>
        <time>2018-07-01T06:58:15Z</time>
      </trkpt>
      <trkpt lat="45.96162" lon="4.72218">
        <ele>169</ele>
        <time>2018-07-01T06:58:36Z</time>
      </trkpt>
      <trkpt lat="45.96078" lon="4.72154">
        <ele>171</ele>
        <time>2018-07-01T06:58:57Z</time>
      </trkpt>
      <trkpt lat="45.95999" lon="4.7209">
        <ele>172</ele>
        <time>2018-07-01T06:59:18Z</time>
      </trkpt>
      <trkpt lat="45.95929" lon="4.72018">
        <ele>170</ele>
        <time>2018-07-01T06:59:38Z</time>
      </trkpt>
      <trkpt lat="45.95836" lon="4.71949">
        <ele>172</ele>
        <time>2018-07-01T06:59:59Z</time>
      </trkpt>
      <trkpt lat="45.95756" lon="4.71881">
        <ele>172</ele>
        <time>2018-07-01T07:00:19Z</time>
      </trkpt>
      <trkpt lat="45.95679" lon="4.71827">
        <ele>169</ele>
        <time>2018-07-01T07:00:40Z</time>
      </trkpt>
      <trkpt lat="45.9559" lon="4.71788">
        <ele>170</ele>
        <time>2018-07-01T07:01:00Z</time>
      </trkpt>
      <trkpt lat="45.95505" lon="4.71822">
        <ele>174</ele>
        <time>2018-07-01T07:01:20Z</time>
      </trkpt>
      <trkpt lat="45.95413" lon="4.7183">
        <ele>171</ele>
        <time>2018-07-01T07:01:40Z</time>
      </trkpt>
      <trkpt lat="45.95324" lon="4.71859">
        <ele>169</ele>
        <time>2018-07-01T07:02:01Z</time>
      </trkpt>
      <trkpt lat="45.95242" lon="4.71896">
        <ele>168</ele>
        <time>2018-07-01T07:02:21Z</time>
      </trkpt>
      <trkpt lat="45.95162" lon="4.71901">
        <ele>169</ele>
        <time>2018-07-01T07:02:41Z</time>
      </trkpt>
      <trkpt lat="45.95149" lon="4.71801">
        <ele>168</ele>
        <time>2018-07-01T07:03:02Z</time>
      </trkpt>
      <trkpt lat="45.95126" lon="4.71705">
        <ele>169</ele>
        <time>2018-07-01T07:03:22Z</time>
      </trkpt>
      <trkpt lat="45.95085" lon="4.71659">
        <ele>171</ele>
        <time>2018-07-01T07:03:42Z</time>
      </trkpt>
      <trkpt lat="45.95006" lon="4.71676">
        <ele>172</ele>
        <time>2018-07-01T07:04:03Z</time>
      </trkpt>
      <trkpt lat="45.94986" lon="4.71789">
        <ele>171</ele>
        <time>2018-07-01T07:04:23Z</time>
      </trkpt>
      <trkpt lat="45.9498" lon="4.71688">
        <ele>172</ele>
        <time>2018-07-01T07:04:44Z</time>
      </trkpt>
      <trkpt lat="45.94979" lon="4.71598">
        <ele>175</ele>
        <time>2018-07-01T07:05:04Z</time>
      </trkpt>
      <trkpt lat="45.94977" lon="4.71568">
        <ele>178</ele>
        <time>2018-07-01T07:05:25Z</time>
      </trkpt>
      <trkpt lat="45.94979" lon="4.71563">
        <ele>178</ele>
        <time>2018-07-01T07:05:46Z</time>
      </trkpt>
      <trkpt lat="45.94968" lon="4.71544">
        <ele>178</ele>
        <time>2018-07-01T07:06:06Z</time>
      </trkpt>
      <trkpt lat="45.94986" lon="4.7146">
        <ele>183</ele>
        <time>2018-07-01T07:06:26Z</time>
      </trkpt>
      <trkpt lat="45.94971" lon="4.7136">
        <ele>188</ele>
        <time>2018-07-01T07:06:47Z</time>
      </trkpt>
      <trkpt lat="45.9494" lon="4.71302">
        <ele>190</ele>
        <time>2018-07-01T07:07:07Z</time>
      </trkpt>
      <trkpt lat="45.9491" lon="4.71244">
        <ele>192</ele>
        <time>2018-07-01T07:07:28Z</time>
      </trkpt>
      <trkpt lat="45.94847" lon="4.71234">
        <ele>194</ele>
        <time>2018-07-01T07:07:48Z</time>
      </trkpt>
      <trkpt lat="45.94772" lon="4.71234">
        <ele>199</ele>
        <time>2018-07-01T07:08:09Z</time>
      </trkpt>
      <trkpt lat="45.94689" lon="4.71254">
        <ele>193</ele>
        <time>2018-07-01T07:08:30Z</time>
      </trkpt>
      <trkpt lat="45.94666" lon="4.71217">
        <ele>197</ele>
        <time>2018-07-01T07:08:50Z</time>
      </trkpt>
      <trkpt lat="45.94665" lon="4.71158">
        <ele>203</ele>
        <time>2018-07-01T07:09:11Z</time>
      </trkpt>
      <trkpt lat="45.94658" lon="4.71101">
        <ele>208</ele>
        <time>2018-07-01T07:09:32Z</time>
      </trkpt>
      <trkpt lat="45.9465" lon="4.71055">
        <ele>213</ele>
        <time>2018-07-01T07:09:53Z</time>
      </trkpt>
      <trkpt lat="45.94641" lon="4.71013">
        <ele>215</ele>
        <time>2018-07-01T07:10:13Z</time>
      </trkpt>
      <trkpt lat="45.94632" lon="4.70955">
        <ele>220</ele>
        <time>2018-07-01T07:10:34Z</time>
      </trkpt>
      <trkpt lat="45.94637" lon="4.70914">
        <ele>222</ele>
        <time>2018-07-01T07:10:55Z</time>
      </trkpt>
      <trkpt lat="45.94654" lon="4.70876">
        <ele>222</ele>
        <time>2018-07-01T07:11:16Z</time>
      </trkpt>
      <trkpt lat="45.94652" lon="4.70833">
        <ele>222</ele>
        <time>2018-07-01T07:11:37Z</time>
      </trkpt>
      <trkpt lat="45.94642" lon="4.70778">
        <ele>222</ele>
        <time>2018-07-01T07:11:58Z</time>
      </trkpt>
      <trkpt lat="45.94705" lon="4.70675">
        <ele>226</ele>
        <time>2018-07-01T07:12:19Z</time>
      </trkpt>
      <trkpt lat="45.94743" lon="4.70687">
        <ele>229</ele>
        <time>2018-07-01T07:12:40Z</time>
      </trkpt>
      <trkpt lat="45.94782" lon="4.70694">
        <ele>232</ele>
        <time>2018-07-01T07:13:00Z</time>
      </trkpt>
      <trkpt lat="45.9481" lon="4.70694">
        <ele>234</ele>
        <time>2018-07-01T07:13:21Z</time>
      </trkpt>
      <trkpt lat="45.94833" lon="4.70695">
        <ele>235</ele>
        <time>2018-07-01T07:13:41Z</time>
      </trkpt>
      <trkpt lat="45.94845" lon="4.70695">
        <ele>239</ele>
        <time>2018-07-01T07:14:02Z</time>
      </trkpt>
      <trkpt lat="45.9485" lon="4.70696">
        <ele>239</ele>
        <time>2018-07-01T07:14:22Z</time>
      </trkpt>
      <trkpt lat="45.9485" lon="4.70696">
        <ele>239</ele>
        <time>2018-07-01T07:14:43Z</time>
      </trkpt>
      <trkpt lat="45.9485" lon="4.70696">
        <ele>239</ele>
        <time>2018-07-01T07:15:03Z</time>
      </trkpt>
      <trkpt lat="45.94875" lon="4.70664">
        <ele>249</ele>
        <time>2018-07-01T07:15:23Z</time>
      </trkpt>
      <trkpt lat="45.94879" lon="4.70643">
        <ele>250</ele>
        <time>2018-07-01T07:15:43Z</time>
      </trkpt>
      <trkpt lat="45.94878" lon="4.70647">
        <ele>250</ele>
        <time>2018-07-01T07:16:04Z</time>
      </trkpt>
      <trkpt lat="45.9488" lon="4.70644">
        <ele>250</ele>
        <time>2018-07-01T07:16:24Z</time>
      </trkpt>
      <trkpt lat="45.94878" lon="4.70634">
        <ele>251</ele>
        <time>2018-07-01T07:16:44Z</time>
      </trkpt>
      <trkpt lat="45.94878" lon="4.70604">
        <ele>253</ele>
        <time>2018-07-01T07:17:05Z</time>
      </trkpt>
      <trkpt lat="45.94883" lon="4.70589">
        <ele>254</ele>
        <time>2018-07-01T07:17:25Z</time>
      </trkpt>
      <trkpt lat="45.94892" lon="4.70574">
        <ele>261</ele>
        <time>2018-07-01T07:17:45Z</time>
      </trkpt>
      <trkpt lat="45.94894" lon="4.70569">
        <ele>261</ele>
        <time>2018-07-01T07:18:06Z</time>
      </trkpt>
      <trkpt lat="45.94894" lon="4.70569">
        <ele>261</ele>
        <time>2018-07-01T07:18:27Z</time>
      </trkpt>
      <trkpt lat="45.94894" lon="4.70568">
        <ele>261</ele>
        <time>2018-07-01T07:18:47Z</time>
      </trkpt>
      <trkpt lat="45.94895" lon="4.70566">
        <ele>261</ele>
        <time>2018-07-01T07:19:08Z</time>
      </trkpt>
      <trkpt lat="45.94894" lon="4.70566">
        <ele>261</ele>
        <time>2018-07-01T07:19:29Z</time>
      </trkpt>
      <trkpt lat="45.94906" lon="4.70549">
        <ele>262</ele>
        <time>2018-07-01T07:19:49Z</time>
      </trkpt>
      <trkpt lat="45.94917" lon="4.7054">
        <ele>261</ele>
        <time>2018-07-01T07:20:09Z</time>
      </trkpt>
      <trkpt lat="45.94917" lon="4.70541">
        <ele>261</ele>
        <time>2018-07-01T07:20:30Z</time>
      </trkpt>
      <trkpt lat="45.94917" lon="4.70541">
        <ele>261</ele>
        <time>2018-07-01T07:20:50Z</time>
      </trkpt>
      <trkpt lat="45.95014" lon="4.70599">
        <ele>254</ele>
        <time>2018-07-01T07:21:11Z</time>
      </trkpt>
      <trkpt lat="45.95073" lon="4.70615">
        <ele>254</ele>
        <time>2018-07-01T07:21:32Z</time>
      </trkpt>
      <trkpt lat="45.95117" lon="4.70639">
        <ele>259</ele>
        <time>2018-07-01T07:21:52Z</time>
      </trkpt>
      <trkpt lat="45.95163" lon="4.70665">
        <ele>260</ele>
        <time>2018-07-01T07:22:13Z</time>
      </trkpt>
      <trkpt lat="45.95241" lon="4.70699">
        <ele>257</ele>
        <time>2018-07-01T07:22:33Z</time>
      </trkpt>
      <trkpt lat="45.95355" lon="4.70752">
        <ele>245</ele>
        <time>2018-07-01T07:22:53Z</time>
      </trkpt>
      <trkpt lat="45.95492" lon="4.70806">
        <ele>236</ele>
        <time>2018-07-01T07:23:14Z</time>
      </trkpt>
      <trkpt lat="45.9559" lon="4.70844">
        <ele>233</ele>
        <time>2018-07-01T07:23:34Z</time>
      </trkpt>
      <trkpt lat="45.9563" lon="4.7089">
        <ele>229</ele>
        <time>2018-07-01T07:23:55Z</time>
      </trkpt>
      <trkpt lat="45.95656" lon="4.70866">
        <ele>230</ele>
        <time>2018-07-01T07:24:15Z</time>
      </trkpt>
      <trkpt lat="45.9565" lon="4.70802">
        <ele>237</ele>
        <time>2018-07-01T07:24:36Z</time>
      </trkpt>
      <trkpt lat="45.95661" lon="4.70744">
        <ele>241</ele>
        <time>2018-07-01T07:24:56Z</time>
      </trkpt>
      <trkpt lat="45.95671" lon="4.70684">
        <ele>247</ele>
        <time>2018-07-01T07:25:16Z</time>
      </trkpt>
      <trkpt lat="45.95676" lon="4.70619">
        <ele>255</ele>
        <time>2018-07-01T07:25:37Z</time>
      </trkpt>
      <trkpt lat="45.95678" lon="4.70561">
        <ele>261</ele>
        <time>2018-07-01T07:25:57Z</time>
      </trkpt>
      <trkpt lat="45.95672" lon="4.70515">
        <ele>264</ele>
        <time>2018-07-01T07:26:17Z</time>
      </trkpt>
      <trkpt lat="45.95659" lon="4.70479">
        <ele>264</ele>
        <time>2018-07-01T07:26:38Z</time>
      </trkpt>
      <trkpt lat="45.95645" lon="4.70443">
        <ele>267</ele>
        <time>2018-07-01T07:26:58Z</time>
      </trkpt>
      <trkpt lat="45.95624" lon="4.70413">
        <ele>273</ele>
        <time>2018-07-01T07:27:19Z</time>
      </trkpt>
      <trkpt lat="45.95617" lon="4.70385">
        <ele>274</ele>
        <time>2018-07-01T07:27:40Z</time>
      </trkpt>
      <trkpt lat="45.95597" lon="4.70357">
        <ele>274</ele>
        <time>2018-07-01T07:28:00Z</time>
      </trkpt>
      <trkpt lat="45.95582" lon="4.70315">
        <ele>276</ele>
        <time>2018-07-01T07:28:20Z</time>
      </trkpt>
      <trkpt lat="45.95578" lon="4.70296">
        <ele>277</ele>
        <time>2018-07-01T07:28:41Z</time>
      </trkpt>
      <trkpt lat="45.95579" lon="4.703">
        <ele>276</ele>
        <time>2018-07-01T07:29:02Z</time>
      </trkpt>
      <trkpt lat="45.95579" lon="4.703">
        <ele>276</ele>
        <time>2018-07-01T07:29:22Z</time>
      </trkpt>
      <trkpt lat="45.95579" lon="4.703">
        <ele>276</ele>
        <time>2018-07-01T07:29:43Z</time>
      </trkpt>
      <trkpt lat="45.95579" lon="4.703">
        <ele>276</ele>
        <time>2018-07-01T07:30:04Z</time>
      </trkpt>
      <trkpt lat="45.95579" lon="4.703">
        <ele>276</ele>
        <time>2018-07-01T07:30:25Z</time>
      </trkpt>
      <trkpt lat="45.95579" lon="4.703">
        <ele>276</ele>
        <time>2018-07-01T07:30:46Z</time>
      </trkpt>
      <trkpt lat="45.95579" lon="4.703">
        <ele>276</ele>
        <time>2018-07-01T07:31:06Z</time>
      </trkpt>
      <trkpt lat="45.95582" lon="4.70251">
        <ele>282</ele>
        <time>2018-07-01T07:31:26Z</time>
      </trkpt>
      <trkpt lat="45.95588" lon="4.70195">
        <ele>291</ele>
        <time>2018-07-01T07:31:47Z</time>
      </trkpt>
      <trkpt lat="45.9559" lon="4.7014">
        <ele>297</ele>
        <time>2018-07-01T07:32:08Z</time>
      </trkpt>
      <trkpt lat="45.95589" lon="4.70094">
        <ele>298</ele>
        <time>2018-07-01T07:32:28Z</time>
      </trkpt>
      <trkpt lat="45.9559" lon="4.70049">
        <ele>304</ele>
        <time>2018-07-01T07:32:49Z</time>
      </trkpt>
      <trkpt lat="45.95596" lon="4.70006">
        <ele>303</ele>
        <time>2018-07-01T07:33:09Z</time>
      </trkpt>
      <trkpt lat="45.95606" lon="4.69958">
        <ele>309</ele>
        <time>2018-07-01T07:33:30Z</time>
      </trkpt>
      <trkpt lat="45.95618" lon="4.69912">
        <ele>312</ele>
        <time>2018-07-01T07:33:50Z</time>
      </trkpt>
      <trkpt lat="45.95627" lon="4.69862">
        <ele>315</ele>
        <time>2018-07-01T07:34:10Z</time>
      </trkpt>
      <trkpt lat="45.95631" lon="4.69848">
        <ele>316</ele>
        <time>2018-07-01T07:34:31Z</time>
      </trkpt>
      <trkpt lat="45.95632" lon="4.69827">
        <ele>320</ele>
        <time>2018-07-01T07:34:51Z</time>
      </trkpt>
      <trkpt lat="45.95637" lon="4.69804">
        <ele>321</ele>
        <time>2018-07-01T07:35:11Z</time>
      </trkpt>
      <trkpt lat="45.95637" lon="4.69804">
        <ele>321</ele>
        <time>2018-07-01T07:35:32Z</time>
      </trkpt>
      <trkpt lat="45.95646" lon="4.69775">
        <ele>322</ele>
        <time>2018-07-01T07:35:52Z</time>
      </trkpt>
      <trkpt lat="45.95653" lon="4.69725">
        <ele>326</ele>
        <time>2018-07-01T07:36:12Z</time>
      </trkpt>
      <trkpt lat="45.95658" lon="4.697">
        <ele>326</ele>
        <time>2018-07-01T07:36:33Z</time>
      </trkpt>
      <trkpt lat="45.9566" lon="4.69701">
        <ele>326</ele>
        <time>2018-07-01T07:36:54Z</time>
      </trkpt>
      <trkpt lat="45.9566" lon="4.69701">
        <ele>326</ele>
        <time>2018-07-01T07:37:14Z</time>
      </trkpt>
      <trkpt lat="45.9566" lon="4.69701">
        <ele>326</ele>
        <time>2018-07-01T07:37:35Z</time>
      </trkpt>
      <trkpt lat="45.9566" lon="4.69701">
        <ele>326</ele>
        <time>2018-07-01T07:37:56Z</time>
      </trkpt>
      <trkpt lat="45.9566" lon="4.69701">
        <ele>326</ele>
        <time>2018-07-01T07:38:16Z</time>
      </trkpt>
      <trkpt lat="45.9566" lon="4.69701">
        <ele>326</ele>
        <time>2018-07-01T07:38:37Z</time>
      </trkpt>
      <trkpt lat="45.95671" lon="4.69652">
        <ele>326</ele>
        <time>2018-07-01T07:38:58Z</time>
      </trkpt>
      <trkpt lat="45.95745" lon="4.69666">
        <ele>326</ele>
        <time>2018-07-01T07:39:19Z</time>
      </trkpt>
      <trkpt lat="45.95786" lon="4.69636">
        <ele>323</ele>
        <time>2018-07-01T07:39:40Z</time>
      </trkpt>
      <trkpt lat="45.95801" lon="4.69461">
        <ele>313</ele>
        <time>2018-07-01T07:40:01Z</time>
      </trkpt>
      <trkpt lat="45.95831" lon="4.69401">
        <ele>309</ele>
        <time>2018-07-01T07:40:21Z</time>
      </trkpt>
      <trkpt lat="45.95864" lon="4.69396">
        <ele>305</ele>
        <time>2018-07-01T07:40:42Z</time>
      </trkpt>
      <trkpt lat="45.95861" lon="4.69393">
        <ele>305</ele>
        <time>2018-07-01T07:41:03Z</time>
      </trkpt>
      <trkpt lat="45.95859" lon="4.69395">
        <ele>305</ele>
        <time>2018-07-01T07:41:23Z</time>
      </trkpt>
      <trkpt lat="45.95859" lon="4.69395">
        <ele>305</ele>
        <time>2018-07-01T07:41:44Z</time>
      </trkpt>
      <trkpt lat="45.95857" lon="4.69393">
        <ele>305</ele>
        <time>2018-07-01T07:42:05Z</time>
      </trkpt>
      <trkpt lat="45.95861" lon="4.69387">
        <ele>304</ele>
        <time>2018-07-01T07:42:25Z</time>
      </trkpt>
      <trkpt lat="45.95865" lon="4.69406">
        <ele>305</ele>
        <time>2018-07-01T07:42:46Z</time>
      </trkpt>
      <trkpt lat="45.95865" lon="4.69403">
        <ele>305</ele>
        <time>2018-07-01T07:43:06Z</time>
      </trkpt>
      <trkpt lat="45.95826" lon="4.69401">
        <ele>309</ele>
        <time>2018-07-01T07:43:26Z</time>
      </trkpt>
      <trkpt lat="45.95817" lon="4.69293">
        <ele>301</ele>
        <time>2018-07-01T07:43:46Z</time>
      </trkpt>
      <trkpt lat="45.95856" lon="4.69138">
        <ele>294</ele>
        <time>2018-07-01T07:44:07Z</time>
      </trkpt>
      <trkpt lat="45.95917" lon="4.69119">
        <ele>292</ele>
        <time>2018-07-01T07:44:28Z</time>
      </trkpt>
      <trkpt lat="45.9598" lon="4.6914">
        <ele>292</ele>
        <time>2018-07-01T07:44:49Z</time>
      </trkpt>
      <trkpt lat="45.96066" lon="4.69158">
        <ele>285</ele>
        <time>2018-07-01T07:45:09Z</time>
      </trkpt>
      <trkpt lat="45.96132" lon="4.6917">
        <ele>279</ele>
        <time>2018-07-01T07:45:29Z</time>
      </trkpt>
      <trkpt lat="45.96217" lon="4.69009">
        <ele>261</ele>
        <time>2018-07-01T07:45:49Z</time>
      </trkpt>
      <trkpt lat="45.96436" lon="4.68927">
        <ele>252</ele>
        <time>2018-07-01T07:46:10Z</time>
      </trkpt>
      <trkpt lat="45.96519" lon="4.68773">
        <ele>252</ele>
        <time>2018-07-01T07:46:30Z</time>
      </trkpt>
      <trkpt lat="45.96606" lon="4.68646">
        <ele>239</ele>
        <time>2018-07-01T07:46:51Z</time>
      </trkpt>
      <trkpt lat="45.96571" lon="4.68513">
        <ele>233</ele>
        <time>2018-07-01T07:47:12Z</time>
      </trkpt>
      <trkpt lat="45.96567" lon="4.68405">
        <ele>231</ele>
        <time>2018-07-01T07:47:33Z</time>
      </trkpt>
      <trkpt lat="45.96565" lon="4.68405">
        <ele>231</ele>
        <time>2018-07-01T07:47:53Z</time>
      </trkpt>
      <trkpt lat="45.96565" lon="4.68404">
        <ele>231</ele>
        <time>2018-07-01T07:48:14Z</time>
      </trkpt>
      <trkpt lat="45.96568" lon="4.68401">
        <ele>231</ele>
        <time>2018-07-01T07:48:35Z</time>
      </trkpt>
      <trkpt lat="45.96573" lon="4.68398">
        <ele>231</ele>
        <time>2018-07-01T07:48:55Z</time>
      </trkpt>
      <trkpt lat="45.96573" lon="4.68398">
        <ele>231</ele>
        <time>2018-07-01T07:49:16Z</time>
      </trkpt>
      <trkpt lat="45.96573" lon="4.68398">
        <ele>231</ele>
        <time>2018-07-01T07:49:36Z</time>
      </trkpt>
      <trkpt lat="45.96595" lon="4.68395">
        <ele>234</ele>
        <time>2018-07-01T07:49:56Z</time>
      </trkpt>
      <trkpt lat="45.96616" lon="4.68403">
        <ele>234</ele>
        <time>2018-07-01T07:50:17Z</time>
      </trkpt>
      <trkpt lat="45.96622" lon="4.68401">
        <ele>234</ele>
        <time>2018-07-01T07:50:38Z</time>
      </trkpt>
      <trkpt lat="45.96623" lon="4.684">
        <ele>234</ele>
        <time>2018-07-01T07:50:58Z</time>
      </trkpt>
      <trkpt lat="45.96635" lon="4.68361">
        <ele>236</ele>
        <time>2018-07-01T07:51:19Z</time>
      </trkpt>
      <trkpt lat="45.96644" lon="4.68329">
        <ele>242</ele>
        <time>2018-07-01T07:51:39Z</time>
      </trkpt>
      <trkpt lat="45.96649" lon="4.68314">
        <ele>243</ele>
        <time>2018-07-01T07:51:59Z</time>
      </trkpt>
      <trkpt lat="45.96652" lon="4.68295">
        <ele>244</ele>
        <time>2018-07-01T07:52:20Z</time>
      </trkpt>
      <trkpt lat="45.96658" lon="4.68272">
        <ele>246</ele>
        <time>2018-07-01T07:52:40Z</time>
      </trkpt>
      <trkpt lat="45.96658" lon="4.68251">
        <ele>249</ele>
        <time>2018-07-01T07:53:01Z</time>
      </trkpt>
      <trkpt lat="45.96661" lon="4.68246">
        <ele>253</ele>
        <time>2018-07-01T07:53:22Z</time>
      </trkpt>
      <trkpt lat="45.96662" lon="4.68246">
        <ele>252</ele>
        <time>2018-07-01T07:53:42Z</time>
      </trkpt>
      <trkpt lat="45.96662" lon="4.68246">
        <ele>252</ele>
        <time>2018-07-01T07:54:03Z</time>
      </trkpt>
      <trkpt lat="45.96661" lon="4.68244">
        <ele>253</ele>
        <time>2018-07-01T07:54:24Z</time>
      </trkpt>
      <trkpt lat="45.96662" lon="4.68244">
        <ele>253</ele>
        <time>2018-07-01T07:54:45Z</time>
      </trkpt>
      <trkpt lat="45.96662" lon="4.68244">
        <ele>253</ele>
        <time>2018-07-01T07:55:05Z</time>
      </trkpt>
      <trkpt lat="45.96662" lon="4.68244">
        <ele>253</ele>
        <time>2018-07-01T07:55:25Z</time>
      </trkpt>
      <trkpt lat="45.96662" lon="4.68244">
        <ele>253</ele>
        <time>2018-07-01T07:55:46Z</time>
      </trkpt>
      <trkpt lat="45.96662" lon="4.68244">
        <ele>253</ele>
        <time>2018-07-01T07:56:07Z</time>
      </trkpt>
      <trkpt lat="45.96651" lon="4.68215">
        <ele>255</ele>
        <time>2018-07-01T07:56:28Z</time>
      </trkpt>
      <trkpt lat="45.96635" lon="4.68172">
        <ele>258</ele>
        <time>2018-07-01T07:56:49Z</time>
      </trkpt>
      <trkpt lat="45.96617" lon="4.68133">
        <ele>266</ele>
        <time>2018-07-01T07:57:10Z</time>
      </trkpt>
      <trkpt lat="45.96591" lon="4.68102">
        <ele>267</ele>
        <time>2018-07-01T07:57:31Z</time>
      </trkpt>
      <trkpt lat="45.96565" lon="4.68074">
        <ele>272</ele>
        <time>2018-07-01T07:57:51Z</time>
      </trkpt>
      <trkpt lat="45.96543" lon="4.68044">
        <ele>274</ele>
        <time>2018-07-01T07:58:11Z</time>
      </trkpt>
      <trkpt lat="45.96531" lon="4.68009">
        <ele>276</ele>
        <time>2018-07-01T07:58:32Z</time>
      </trkpt>
      <trkpt lat="45.96541" lon="4.67967">
        <ele>285</ele>
        <time>2018-07-01T07:58:53Z</time>
      </trkpt>
      <trkpt lat="45.96546" lon="4.67937">
        <ele>287</ele>
        <time>2018-07-01T07:59:13Z</time>
      </trkpt>
      <trkpt lat="45.96545" lon="4.67938">
        <ele>287</ele>
        <time>2018-07-01T07:59:34Z</time>
      </trkpt>
      <trkpt lat="45.96545" lon="4.67938">
        <ele>287</ele>
        <time>2018-07-01T07:59:55Z</time>
      </trkpt>
      <trkpt lat="45.9655" lon="4.67925">
        <ele>288</ele>
        <time>2018-07-01T08:00:16Z</time>
      </trkpt>
      <trkpt lat="45.96558" lon="4.67886">
        <ele>294</ele>
        <time>2018-07-01T08:00:37Z</time>
      </trkpt>
      <trkpt lat="45.96564" lon="4.67854">
        <ele>295</ele>
        <time>2018-07-01T08:00:58Z</time>
      </trkpt>
      <trkpt lat="45.96572" lon="4.67809">
        <ele>299</ele>
        <time>2018-07-01T08:01:18Z</time>
      </trkpt>
      <trkpt lat="45.96587" lon="4.67779">
        <ele>300</ele>
        <time>2018-07-01T08:01:39Z</time>
      </trkpt>
      <trkpt lat="45.96622" lon="4.67758">
        <ele>301</ele>
        <time>2018-07-01T08:01:59Z</time>
      </trkpt>
      <trkpt lat="45.96642" lon="4.67693">
        <ele>305</ele>
        <time>2018-07-01T08:02:19Z</time>
      </trkpt>
      <trkpt lat="45.96659" lon="4.67634">
        <ele>307</ele>
        <time>2018-07-01T08:02:40Z</time>
      </trkpt>
      <trkpt lat="45.96612" lon="4.67617">
        <ele>307</ele>
        <time>2018-07-01T08:03:00Z</time>
      </trkpt>
      <trkpt lat="45.96557" lon="4.67598">
        <ele>306</ele>
        <time>2018-07-01T08:03:20Z</time>
      </trkpt>
      <trkpt lat="45.96511" lon="4.67583">
        <ele>306</ele>
        <time>2018-07-01T08:03:41Z</time>
      </trkpt>
      <trkpt lat="45.96518" lon="4.67519">
        <ele>305</ele>
        <time>2018-07-01T08:04:02Z</time>
      </trkpt>
      <trkpt lat="45.96508" lon="4.67506">
        <ele>305</ele>
        <time>2018-07-01T08:04:22Z</time>
      </trkpt>
      <trkpt lat="45.96508" lon="4.67506">
        <ele>305</ele>
        <time>2018-07-01T08:04:43Z</time>
      </trkpt>
      <trkpt lat="45.96508" lon="4.67506">
        <ele>305</ele>
        <time>2018-07-01T08:05:04Z</time>
      </trkpt>
      <trkpt lat="45.96508" lon="4.67506">
        <ele>305</ele>
        <time>2018-07-01T08:05:24Z</time>
      </trkpt>
      <trkpt lat="45.96508" lon="4.67506">
        <ele>305</ele>
        <time>2018-07-01T08:05:45Z</time>
      </trkpt>
      <trkpt lat="45.96508" lon="4.67506">
        <ele>305</ele>
        <time>2018-07-01T08:06:05Z</time>
      </trkpt>
      <trkpt lat="45.96508" lon="4.67506">
        <ele>305</ele>
        <time>2018-07-01T08:06:26Z</time>
      </trkpt>
      <trkpt lat="45.96508" lon="4.67506">
        <ele>305</ele>
        <time>2018-07-01T08:06:47Z</time>
      </trkpt>
      <trkpt lat="45.96508" lon="4.67506">
        <ele>305</ele>
        <time>2018-07-01T08:07:07Z</time>
      </trkpt>
      <trkpt lat="45.96508" lon="4.67506">
        <ele>305</ele>
        <time>2018-07-01T08:07:28Z</time>
      </trkpt>
      <trkpt lat="45.96508" lon="4.67506">
        <ele>305</ele>
        <time>2018-07-01T08:07:48Z</time>
      </trkpt>
      <trkpt lat="45.96508" lon="4.67506">
        <ele>305</ele>
        <time>2018-07-01T08:08:08Z</time>
      </trkpt>
      <trkpt lat="45.96477" lon="4.67499">
        <ele>302</ele>
        <time>2018-07-01T08:08:29Z</time>
      </trkpt>
      <trkpt lat="45.96418" lon="4.67472">
        <ele>302</ele>
        <time>2018-07-01T08:08:50Z</time>
      </trkpt>
      <trkpt lat="45.96357" lon="4.67458">
        <ele>303</ele>
        <time>2018-07-01T08:09:11Z</time>
      </trkpt>
      <trkpt lat="45.96302" lon="4.67435">
        <ele>303</ele>
        <time>2018-07-01T08:09:31Z</time>
      </trkpt>
      <trkpt lat="45.96243" lon="4.67403">
        <ele>301</ele>
        <time>2018-07-01T08:09:51Z</time>
      </trkpt>
      <trkpt lat="45.96191" lon="4.67372">
        <ele>301</ele>
        <time>2018-07-01T08:10:12Z</time>
      </trkpt>
      <trkpt lat="45.96157" lon="4.67427">
        <ele>305</ele>
        <time>2018-07-01T08:10:32Z</time>
      </trkpt>
      <trkpt lat="45.96108" lon="4.67452">
        <ele>304</ele>
        <time>2018-07-01T08:10:53Z</time>
      </trkpt>
      <trkpt lat="45.96044" lon="4.67393">
        <ele>304</ele>
        <time>2018-07-01T08:11:13Z</time>
      </trkpt>
      <trkpt lat="45.95976" lon="4.67312">
        <ele>300</ele>
        <time>2018-07-01T08:11:33Z</time>
      </trkpt>
      <trkpt lat="45.95875" lon="4.67254">
        <ele>297</ele>
        <time>2018-07-01T08:11:54Z</time>
      </trkpt>
      <trkpt lat="45.95769" lon="4.67209">
        <ele>292</ele>
        <time>2018-07-01T08:12:14Z</time>
      </trkpt>
      <trkpt lat="45.95665" lon="4.67174">
        <ele>288</ele>
        <time>2018-07-01T08:12:35Z</time>
      </trkpt>
      <trkpt lat="45.95539" lon="4.67132">
        <ele>281</ele>
        <time>2018-07-01T08:12:55Z</time>
      </trkpt>
      <trkpt lat="45.95431" lon="4.66977">
        <ele>270</ele>
        <time>2018-07-01T08:13:16Z</time>
      </trkpt>
      <trkpt lat="45.95319" lon="4.66891">
        <ele>266</ele>
        <time>2018-07-01T08:13:37Z</time>
      </trkpt>
      <trkpt lat="45.95283" lon="4.66843">
        <ele>264</ele>
        <time>2018-07-01T08:13:58Z</time>
      </trkpt>
      <trkpt lat="45.95218" lon="4.66718">
        <ele>256</ele>
        <time>2018-07-01T08:14:18Z</time>
      </trkpt>
      <trkpt lat="45.95129" lon="4.66624">
        <ele>255</ele>
        <time>2018-07-01T08:14:38Z</time>
      </trkpt>
      <trkpt lat="45.95048" lon="4.66548">
        <ele>253</ele>
        <time>2018-07-01T08:14:58Z</time>
      </trkpt>
      <trkpt lat="45.94968" lon="4.66531">
        <ele>255</ele>
        <time>2018-07-01T08:15:19Z</time>
      </trkpt>
      <trkpt lat="45.94907" lon="4.66509">
        <ele>259</ele>
        <time>2018-07-01T08:15:39Z</time>
      </trkpt>
      <trkpt lat="45.94886" lon="4.66459">
        <ele>256</ele>
        <time>2018-07-01T08:15:59Z</time>
      </trkpt>
      <trkpt lat="45.94855" lon="4.66373">
        <ele>250</ele>
        <time>2018-07-01T08:16:20Z</time>
      </trkpt>
      <trkpt lat="45.94808" lon="4.66346">
        <ele>253</ele>
        <time>2018-07-01T08:16:41Z</time>
      </trkpt>
      <trkpt lat="45.94753" lon="4.66348">
        <ele>254</ele>
        <time>2018-07-01T08:17:02Z</time>
      </trkpt>
      <trkpt lat="45.94692" lon="4.66341">
        <ele>259</ele>
        <time>2018-07-01T08:17:23Z</time>
      </trkpt>
      <trkpt lat="45.94641" lon="4.66338">
        <ele>263</ele>
        <time>2018-07-01T08:17:43Z</time>
      </trkpt>
      <trkpt lat="45.94583" lon="4.66308">
        <ele>261</ele>
        <time>2018-07-01T08:18:03Z</time>
      </trkpt>
      <trkpt lat="45.94521" lon="4.66279">
        <ele>262</ele>
        <time>2018-07-01T08:18:24Z</time>
      </trkpt>
      <trkpt lat="45.94465" lon="4.66236">
        <ele>262</ele>
        <time>2018-07-01T08:18:45Z</time>
      </trkpt>
      <trkpt lat="45.94416" lon="4.66211">
        <ele>267</ele>
        <time>2018-07-01T08:19:05Z</time>
      </trkpt>
      <trkpt lat="45.94351" lon="4.66175">
        <ele>269</ele>
        <time>2018-07-01T08:19:26Z</time>
      </trkpt>
      <trkpt lat="45.94313" lon="4.66179">
        <ele>273</ele>
        <time>2018-07-01T08:19:47Z</time>
      </trkpt>
      <trkpt lat="45.94275" lon="4.66185">
        <ele>276</ele>
        <time>2018-07-01T08:20:07Z</time>
      </trkpt>
      <trkpt lat="45.94231" lon="4.66181">
        <ele>281</ele>
        <time>2018-07-01T08:20:28Z</time>
      </trkpt>
      <trkpt lat="45.94193" lon="4.66189">
        <ele>283</ele>
        <time>2018-07-01T08:20:48Z</time>
      </trkpt>
      <trkpt lat="45.94171" lon="4.66199">
        <ele>284</ele>
        <time>2018-07-01T08:21:09Z</time>
      </trkpt>
      <trkpt lat="45.94159" lon="4.66197">
        <ele>288</ele>
        <time>2018-07-01T08:21:30Z</time>
      </trkpt>
      <trkpt lat="45.9414" lon="4.66192">
        <ele>288</ele>
        <time>2018-07-01T08:21:51Z</time>
      </trkpt>
      <trkpt lat="45.94136" lon="4.66191">
        <ele>288</ele>
        <time>2018-07-01T08:22:11Z</time>
      </trkpt>
      <trkpt lat="45.94136" lon="4.66191">
        <ele>288</ele>
        <time>2018-07-01T08:22:31Z</time>
      </trkpt>
      <trkpt lat="45.94136" lon="4.66191">
        <ele>288</ele>
        <time>2018-07-01T08:22:52Z</time>
      </trkpt>
      <trkpt lat="45.94136" lon="4.66191">
        <ele>288</ele>
        <time>2018-07-01T08:23:12Z</time>
      </trkpt>
      <trkpt lat="45.94135" lon="4.66191">
        <ele>288</ele>
        <time>2018-07-01T08:23:32Z</time>
      </trkpt>
      <trkpt lat="45.94101" lon="4.66211">
        <ele>288</ele>
        <time>2018-07-01T08:23:53Z</time>
      </trkpt>
      <trkpt lat="45.94049" lon="4.66223">
        <ele>291</ele>
        <time>2018-07-01T08:24:13Z</time>
      </trkpt>
      <trkpt lat="45.94001" lon="4.66225">
        <ele>292</ele>
        <time>2018-07-01T08:24:33Z</time>
      </trkpt>
      <trkpt lat="45.93957" lon="4.66228">
        <ele>296</ele>
        <time>2018-07-01T08:24:54Z</time>
      </trkpt>
      <trkpt lat="45.93908" lon="4.66237">
        <ele>301</ele>
        <time>2018-07-01T08:25:14Z</time>
      </trkpt>
      <trkpt lat="45.93863" lon="4.66231">
        <ele>303</ele>
        <time>2018-07-01T08:25:34Z</time>
      </trkpt>
      <trkpt lat="45.93808" lon="4.66238">
        <ele>307</ele>
        <time>2018-07-01T08:25:55Z</time>
      </trkpt>
      <trkpt lat="45.93732" lon="4.66236">
        <ele>310</ele>
        <time>2018-07-01T08:26:16Z</time>
      </trkpt>
      <trkpt lat="45.937" lon="4.66282">
        <ele>311</ele>
        <time>2018-07-01T08:26:36Z</time>
      </trkpt>
      <trkpt lat="45.93679" lon="4.66302">
        <ele>311</ele>
        <time>2018-07-01T08:26:57Z</time>
      </trkpt>
      <trkpt lat="45.93694" lon="4.66262">
        <ele>311</ele>
        <time>2018-07-01T08:27:17Z</time>
      </trkpt>
      <trkpt lat="45.93695" lon="4.66261">
        <ele>311</ele>
        <time>2018-07-01T08:27:37Z</time>
      </trkpt>
      <trkpt lat="45.93695" lon="4.66263">
        <ele>311</ele>
        <time>2018-07-01T08:27:58Z</time>
      </trkpt>
      <trkpt lat="45.93696" lon="4.66263">
        <ele>311</ele>
        <time>2018-07-01T08:28:18Z</time>
      </trkpt>
      <trkpt lat="45.93696" lon="4.66263">
        <ele>311</ele>
        <time>2018-07-01T08:28:38Z</time>
      </trkpt>
      <trkpt lat="45.93696" lon="4.66264">
        <ele>311</ele>
        <time>2018-07-01T08:28:58Z</time>
      </trkpt>
      <trkpt lat="45.93696" lon="4.66264">
        <ele>311</ele>
        <time>2018-07-01T08:29:18Z</time>
      </trkpt>
      <trkpt lat="45.93696" lon="4.66264">
        <ele>311</ele>
        <time>2018-07-01T08:29:39Z</time>
      </trkpt>
      <trkpt lat="45.93696" lon="4.66264">
        <ele>311</ele>
        <time>2018-07-01T08:29:59Z</time>
      </trkpt>
      <trkpt lat="45.93696" lon="4.66264">
        <ele>311</ele>
        <time>2018-07-01T08:30:19Z</time>
      </trkpt>
      <trkpt lat="45.93696" lon="4.66264">
        <ele>311</ele>
        <time>2018-07-01T08:30:40Z</time>
      </trkpt>
      <trkpt lat="45.93696" lon="4.66264">
        <ele>311</ele>
        <time>2018-07-01T08:31:01Z</time>
      </trkpt>
      <trkpt lat="45.93691" lon="4.66269">
        <ele>311</ele>
        <time>2018-07-01T08:31:22Z</time>
      </trkpt>
      <trkpt lat="45.93691" lon="4.6627">
        <ele>311</ele>
        <time>2018-07-01T08:31:43Z</time>
      </trkpt>
      <trkpt lat="45.93694" lon="4.66268">
        <ele>311</ele>
        <time>2018-07-01T08:32:04Z</time>
      </trkpt>
      <trkpt lat="45.93694" lon="4.66269">
        <ele>311</ele>
        <time>2018-07-01T08:32:24Z</time>
      </trkpt>
      <trkpt lat="45.93694" lon="4.66269">
        <ele>311</ele>
        <time>2018-07-01T08:32:45Z</time>
      </trkpt>
      <trkpt lat="45.93696" lon="4.66267">
        <ele>311</ele>
        <time>2018-07-01T08:33:05Z</time>
      </trkpt>
      <trkpt lat="45.93698" lon="4.66268">
        <ele>311</ele>
        <time>2018-07-01T08:33:26Z</time>
      </trkpt>
      <trkpt lat="45.93696" lon="4.66267">
        <ele>311</ele>
        <time>2018-07-01T08:33:47Z</time>
      </trkpt>
      <trkpt lat="45.93696" lon="4.66267">
        <ele>311</ele>
        <time>2018-07-01T08:34:07Z</time>
      </trkpt>
      <trkpt lat="45.93696" lon="4.66269">
        <ele>311</ele>
        <time>2018-07-01T08:34:27Z</time>
      </trkpt>
      <trkpt lat="45.93697" lon="4.66264">
        <ele>311</ele>
        <time>2018-07-01T08:34:48Z</time>
      </trkpt>
      <trkpt lat="45.93696" lon="4.66264">
        <ele>311</ele>
        <time>2018-07-01T08:35:09Z</time>
      </trkpt>
      <trkpt lat="45.93696" lon="4.66264">
        <ele>311</ele>
        <time>2018-07-01T08:35:30Z</time>
      </trkpt>
      <trkpt lat="45.93699" lon="4.6627">
        <ele>311</ele>
        <time>2018-07-01T08:35:51Z</time>
      </trkpt>
      <trkpt lat="45.93699" lon="4.66272">
        <ele>311</ele>
        <time>2018-07-01T08:36:11Z</time>
      </trkpt>
      <trkpt lat="45.93704" lon="4.66268">
        <ele>311</ele>
        <time>2018-07-01T08:36:32Z</time>
      </trkpt>
      <trkpt lat="45.93704" lon="4.66268">
        <ele>311</ele>
        <time>2018-07-01T08:36:53Z</time>
      </trkpt>
      <trkpt lat="45.93704" lon="4.66268">
        <ele>311</ele>
        <time>2018-07-01T08:37:14Z</time>
      </trkpt>
      <trkpt lat="45.93704" lon="4.66268">
        <ele>311</ele>
        <time>2018-07-01T08:37:35Z</time>
      </trkpt>
      <trkpt lat="45.93704" lon="4.66268">
        <ele>311</ele>
        <time>2018-07-01T08:37:55Z</time>
      </trkpt>
      <trkpt lat="45.93704" lon="4.66268">
        <ele>311</ele>
        <time>2018-07-01T08:38:16Z</time>
      </trkpt>
      <trkpt lat="45.93704" lon="4.66268">
        <ele>311</ele>
        <time>2018-07-01T08:38:36Z</time>
      </trkpt>
      <trkpt lat="45.93704" lon="4.66272">
        <ele>311</ele>
        <time>2018-07-01T08:38:57Z</time>
      </trkpt>
      <trkpt lat="45.93704" lon="4.66271">
        <ele>311</ele>
        <time>2018-07-01T08:39:17Z</time>
      </trkpt>
      <trkpt lat="45.93705" lon="4.66267">
        <ele>311</ele>
        <time>2018-07-01T08:39:37Z</time>
      </trkpt>
      <trkpt lat="45.93705" lon="4.66267">
        <ele>311</ele>
        <time>2018-07-01T08:39:58Z</time>
      </trkpt>
      <trkpt lat="45.93705" lon="4.66266">
        <ele>311</ele>
        <time>2018-07-01T08:40:19Z</time>
      </trkpt>
      <trkpt lat="45.93705" lon="4.66266">
        <ele>311</ele>
        <time>2018-07-01T08:40:39Z</time>
      </trkpt>
      <trkpt lat="45.93705" lon="4.66266">
        <ele>311</ele>
        <time>2018-07-01T08:41:00Z</time>
      </trkpt>
      <trkpt lat="45.93704" lon="4.66266">
        <ele>311</ele>
        <time>2018-07-01T08:41:21Z</time>
      </trkpt>
      <trkpt lat="45.93704" lon="4.66266">
        <ele>311</ele>
        <time>2018-07-01T08:41:42Z</time>
      </trkpt>
      <trkpt lat="45.93704" lon="4.66266">
        <ele>311</ele>
        <time>2018-07-01T08:42:03Z</time>
      </trkpt>
      <trkpt lat="45.93701" lon="4.66266">
        <ele>311</ele>
        <time>2018-07-01T08:42:23Z</time>
      </trkpt>
      <trkpt lat="45.93702" lon="4.66269">
        <ele>311</ele>
        <time>2018-07-01T08:42:44Z</time>
      </trkpt>
      <trkpt lat="45.93703" lon="4.66269">
        <ele>311</ele>
        <time>2018-07-01T08:43:05Z</time>
      </trkpt>
      <trkpt lat="45.93704" lon="4.66264">
        <ele>311</ele>
        <time>2018-07-01T08:43:25Z</time>
      </trkpt>
      <trkpt lat="45.93704" lon="4.66265">
        <ele>311</ele>
        <time>2018-07-01T08:43:46Z</time>
      </trkpt>
      <trkpt lat="45.93704" lon="4.66265">
        <ele>311</ele>
        <time>2018-07-01T08:44:07Z</time>
      </trkpt>
      <trkpt lat="45.93704" lon="4.66265">
        <ele>311</ele>
        <time>2018-07-01T08:44:28Z</time>
      </trkpt>
      <trkpt lat="45.93704" lon="4.66265">
        <ele>311</ele>
        <time>2018-07-01T08:44:49Z</time>
      </trkpt>
      <trkpt lat="45.93706" lon="4.66264">
        <ele>311</ele>
        <time>2018-07-01T08:45:09Z</time>
      </trkpt>
      <trkpt lat="45.93706" lon="4.66264">
        <ele>311</ele>
        <time>2018-07-01T08:45:30Z</time>
      </trkpt>
      <trkpt lat="45.93696" lon="4.6627">
        <ele>311</ele>
        <time>2018-07-01T08:45:50Z</time>
      </trkpt>
      <trkpt lat="45.93696" lon="4.66271">
        <ele>311</ele>
        <time>2018-07-01T08:46:11Z</time>
      </trkpt>
      <trkpt lat="45.93696" lon="4.66271">
        <ele>311</ele>
        <time>2018-07-01T08:46:32Z</time>
      </trkpt>
      <trkpt lat="45.9369" lon="4.66283">
        <ele>311</ele>
        <time>2018-07-01T08:46:52Z</time>
      </trkpt>
      <trkpt lat="45.93614" lon="4.66323">
        <ele>312</ele>
        <time>2018-07-01T08:47:13Z</time>
      </trkpt>
      <trkpt lat="45.93544" lon="4.66364">
        <ele>315</ele>
        <time>2018-07-01T08:47:34Z</time>
      </trkpt>
      <trkpt lat="45.9347" lon="4.66468">
        <ele>315</ele>
        <time>2018-07-01T08:47:54Z</time>
      </trkpt>
      <trkpt lat="45.93434" lon="4.66602">
        <ele>317</ele>
        <time>2018-07-01T08:48:15Z</time>
      </trkpt>
      <trkpt lat="45.93397" lon="4.66714">
        <ele>320</ele>
        <time>2018-07-01T08:48:36Z</time>
      </trkpt>
      <trkpt lat="45.93364" lon="4.66774">
        <ele>323</ele>
        <time>2018-07-01T08:48:56Z</time>
      </trkpt>
      <trkpt lat="45.93359" lon="4.66816">
        <ele>324</ele>
        <time>2018-07-01T08:49:17Z</time>
      </trkpt>
      <trkpt lat="45.93359" lon="4.66816">
        <ele>324</ele>
        <time>2018-07-01T08:49:38Z</time>
      </trkpt>
      <trkpt lat="45.93359" lon="4.66816">
        <ele>324</ele>
        <time>2018-07-01T08:49:58Z</time>
      </trkpt>
      <trkpt lat="45.9338" lon="4.66815">
        <ele>324</ele>
        <time>2018-07-01T08:50:19Z</time>
      </trkpt>
      <trkpt lat="45.93466" lon="4.66812">
        <ele>325</ele>
        <time>2018-07-01T08:50:39Z</time>
      </trkpt>
      <trkpt lat="45.93576" lon="4.66825">
        <ele>322</ele>
        <time>2018-07-01T08:51:00Z</time>
      </trkpt>
      <trkpt lat="45.93636" lon="4.66921">
        <ele>320</ele>
        <time>2018-07-01T08:51:21Z</time>
      </trkpt>
      <trkpt lat="45.93722" lon="4.66946">
        <ele>316</ele>
        <time>2018-07-01T08:51:42Z</time>
      </trkpt>
      <trkpt lat="45.93834" lon="4.66962">
        <ele>312</ele>
        <time>2018-07-01T08:52:03Z</time>
      </trkpt>
      <trkpt lat="45.93953" lon="4.66981">
        <ele>308</ele>
        <time>2018-07-01T08:52:24Z</time>
      </trkpt>
      <trkpt lat="45.94038" lon="4.67015">
        <ele>304</ele>
        <time>2018-07-01T08:52:45Z</time>
      </trkpt>
      <trkpt lat="45.94106" lon="4.66954">
        <ele>305</ele>
        <time>2018-07-01T08:53:06Z</time>
      </trkpt>
      <trkpt lat="45.94186" lon="4.66939">
        <ele>309</ele>
        <time>2018-07-01T08:53:27Z</time>
      </trkpt>
      <trkpt lat="45.943" lon="4.66996">
        <ele>308</ele>
        <time>2018-07-01T08:53:48Z</time>
      </trkpt>
      <trkpt lat="45.94393" lon="4.67024">
        <ele>306</ele>
        <time>2018-07-01T08:54:08Z</time>
      </trkpt>
      <trkpt lat="45.9436" lon="4.67121">
        <ele>303</ele>
        <time>2018-07-01T08:54:29Z</time>
      </trkpt>
      <trkpt lat="45.94302" lon="4.67213">
        <ele>295</ele>
        <time>2018-07-01T08:54:49Z</time>
      </trkpt>
      <trkpt lat="45.94218" lon="4.6737">
        <ele>284</ele>
        <time>2018-07-01T08:55:09Z</time>
      </trkpt>
      <trkpt lat="45.94151" lon="4.67504">
        <ele>289</ele>
        <time>2018-07-01T08:55:30Z</time>
      </trkpt>
      <trkpt lat="45.94096" lon="4.67607">
        <ele>289</ele>
        <time>2018-07-01T08:55:51Z</time>
      </trkpt>
      <trkpt lat="45.94028" lon="4.67626">
        <ele>287</ele>
        <time>2018-07-01T08:56:12Z</time>
      </trkpt>
      <trkpt lat="45.93957" lon="4.67637">
        <ele>287</ele>
        <time>2018-07-01T08:56:33Z</time>
      </trkpt>
      <trkpt lat="45.93877" lon="4.67653">
        <ele>288</ele>
        <time>2018-07-01T08:56:53Z</time>
      </trkpt>
      <trkpt lat="45.93796" lon="4.67681">
        <ele>283</ele>
        <time>2018-07-01T08:57:14Z</time>
      </trkpt>
      <trkpt lat="45.93692" lon="4.67726">
        <ele>277</ele>
        <time>2018-07-01T08:57:35Z</time>
      </trkpt>
      <trkpt lat="45.93649" lon="4.678">
        <ele>276</ele>
        <time>2018-07-01T08:57:56Z</time>
      </trkpt>
      <trkpt lat="45.93701" lon="4.67872">
        <ele>277</ele>
        <time>2018-07-01T08:58:16Z</time>
      </trkpt>
      <trkpt lat="45.93713" lon="4.67952">
        <ele>282</ele>
        <time>2018-07-01T08:58:37Z</time>
      </trkpt>
      <trkpt lat="45.93689" lon="4.67986">
        <ele>284</ele>
        <time>2018-07-01T08:58:57Z</time>
      </trkpt>
      <trkpt lat="45.93651" lon="4.68005">
        <ele>289</ele>
        <time>2018-07-01T08:59:17Z</time>
      </trkpt>
      <trkpt lat="45.93619" lon="4.68028">
        <ele>292</ele>
        <time>2018-07-01T08:59:38Z</time>
      </trkpt>
      <trkpt lat="45.93587" lon="4.6805">
        <ele>294</ele>
        <time>2018-07-01T08:59:59Z</time>
      </trkpt>
      <trkpt lat="45.93551" lon="4.68073">
        <ele>296</ele>
        <time>2018-07-01T09:00:19Z</time>
      </trkpt>
      <trkpt lat="45.93541" lon="4.68091">
        <ele>305</ele>
        <time>2018-07-01T09:00:40Z</time>
      </trkpt>
      <trkpt lat="45.93543" lon="4.68091">
        <ele>305</ele>
        <time>2018-07-01T09:01:01Z</time>
      </trkpt>
      <trkpt lat="45.93537" lon="4.68102">
        <ele>306</ele>
        <time>2018-07-01T09:01:21Z</time>
      </trkpt>
      <trkpt lat="45.93531" lon="4.68112">
        <ele>307</ele>
        <time>2018-07-01T09:01:42Z</time>
      </trkpt>
      <trkpt lat="45.93525" lon="4.68126">
        <ele>308</ele>
        <time>2018-07-01T09:02:03Z</time>
      </trkpt>
      <trkpt lat="45.93515" lon="4.68142">
        <ele>310</ele>
        <time>2018-07-01T09:02:23Z</time>
      </trkpt>
      <trkpt lat="45.93504" lon="4.68162">
        <ele>314</ele>
        <time>2018-07-01T09:02:44Z</time>
      </trkpt>
      <trkpt lat="45.93504" lon="4.68164">
        <ele>314</ele>
        <time>2018-07-01T09:03:04Z</time>
      </trkpt>
      <trkpt lat="45.93501" lon="4.68167">
        <ele>316</ele>
        <time>2018-07-01T09:03:24Z</time>
      </trkpt>
      <trkpt lat="45.93482" lon="4.68188">
        <ele>319</ele>
        <time>2018-07-01T09:03:45Z</time>
      </trkpt>
      <trkpt lat="45.93451" lon="4.68216">
        <ele>321</ele>
        <time>2018-07-01T09:04:06Z</time>
      </trkpt>
      <trkpt lat="45.93426" lon="4.68238">
        <ele>323</ele>
        <time>2018-07-01T09:04:26Z</time>
      </trkpt>
      <trkpt lat="45.93395" lon="4.68263">
        <ele>327</ele>
        <time>2018-07-01T09:04:47Z</time>
      </trkpt>
      <trkpt lat="45.93389" lon="4.68296">
        <ele>328</ele>
        <time>2018-07-01T09:05:08Z</time>
      </trkpt>
      <trkpt lat="45.9338" lon="4.68326">
        <ele>329</ele>
        <time>2018-07-01T09:05:28Z</time>
      </trkpt>
      <trkpt lat="45.93373" lon="4.68375">
        <ele>334</ele>
        <time>2018-07-01T09:05:49Z</time>
      </trkpt>
      <trkpt lat="45.93362" lon="4.68425">
        <ele>337</ele>
        <time>2018-07-01T09:06:10Z</time>
      </trkpt>
      <trkpt lat="45.93378" lon="4.68437">
        <ele>337</ele>
        <time>2018-07-01T09:06:30Z</time>
      </trkpt>
      <trkpt lat="45.93378" lon="4.68438">
        <ele>337</ele>
        <time>2018-07-01T09:06:51Z</time>
      </trkpt>
      <trkpt lat="45.93378" lon="4.68438">
        <ele>337</ele>
        <time>2018-07-01T09:07:11Z</time>
      </trkpt>
      <trkpt lat="45.93378" lon="4.68438">
        <ele>337</ele>
        <time>2018-07-01T09:07:31Z</time>
      </trkpt>
      <trkpt lat="45.93378" lon="4.68438">
        <ele>337</ele>
        <time>2018-07-01T09:07:52Z</time>
      </trkpt>
      <trkpt lat="45.93378" lon="4.68438">
        <ele>337</ele>
        <time>2018-07-01T09:08:12Z</time>
      </trkpt>
      <trkpt lat="45.93378" lon="4.68438">
        <ele>337</ele>
        <time>2018-07-01T09:08:33Z</time>
      </trkpt>
      <trkpt lat="45.93378" lon="4.68438">
        <ele>337</ele>
        <time>2018-07-01T09:08:53Z</time>
      </trkpt>
      <trkpt lat="45.9342" lon="4.68459">
        <ele>337</ele>
        <time>2018-07-01T09:09:14Z</time>
      </trkpt>
      <trkpt lat="45.93464" lon="4.68495">
        <ele>337</ele>
        <time>2018-07-01T09:09:34Z</time>
      </trkpt>
      <trkpt lat="45.93488" lon="4.68543">
        <ele>339</ele>
        <time>2018-07-01T09:09:54Z</time>
      </trkpt>
      <trkpt lat="45.93546" lon="4.68564">
        <ele>336</ele>
        <time>2018-07-01T09:10:15Z</time>
      </trkpt>
      <trkpt lat="45.93603" lon="4.68584">
        <ele>336</ele>
        <time>2018-07-01T09:10:35Z</time>
      </trkpt>
      <trkpt lat="45.93569" lon="4.68629">
        <ele>338</ele>
        <time>2018-07-01T09:10:56Z</time>
      </trkpt>
      <trkpt lat="45.93533" lon="4.68682">
        <ele>341</ele>
        <time>2018-07-01T09:11:17Z</time>
      </trkpt>
      <trkpt lat="45.9352" lon="4.68729">
        <ele>342</ele>
        <time>2018-07-01T09:11:38Z</time>
      </trkpt>
      <trkpt lat="45.93524" lon="4.68798">
        <ele>342</ele>
        <time>2018-07-01T09:11:59Z</time>
      </trkpt>
      <trkpt lat="45.93536" lon="4.68892">
        <ele>342</ele>
        <time>2018-07-01T09:12:19Z</time>
      </trkpt>
      <trkpt lat="45.93539" lon="4.6906">
        <ele>332</ele>
        <time>2018-07-01T09:12:39Z</time>
      </trkpt>
      <trkpt lat="45.93589" lon="4.69142">
        <ele>325</ele>
        <time>2018-07-01T09:12:59Z</time>
      </trkpt>
      <trkpt lat="45.93575" lon="4.69294">
        <ele>301</ele>
        <time>2018-07-01T09:13:20Z</time>
      </trkpt>
      <trkpt lat="45.93584" lon="4.69412">
        <ele>297</ele>
        <time>2018-07-01T09:13:41Z</time>
      </trkpt>
      <trkpt lat="45.93586" lon="4.69469">
        <ele>302</ele>
        <time>2018-07-01T09:14:02Z</time>
      </trkpt>
      <trkpt lat="45.93593" lon="4.69529">
        <ele>306</ele>
        <time>2018-07-01T09:14:22Z</time>
      </trkpt>
      <trkpt lat="45.93594" lon="4.69581">
        <ele>306</ele>
        <time>2018-07-01T09:14:42Z</time>
      </trkpt>
      <trkpt lat="45.93606" lon="4.69632">
        <ele>312</ele>
        <time>2018-07-01T09:15:03Z</time>
      </trkpt>
      <trkpt lat="45.93626" lon="4.69684">
        <ele>314</ele>
        <time>2018-07-01T09:15:24Z</time>
      </trkpt>
      <trkpt lat="45.93626" lon="4.69689">
        <ele>314</ele>
        <time>2018-07-01T09:15:44Z</time>
      </trkpt>
      <trkpt lat="45.93626" lon="4.69689">
        <ele>314</ele>
        <time>2018-07-01T09:16:05Z</time>
      </trkpt>
      <trkpt lat="45.93626" lon="4.69689">
        <ele>314</ele>
        <time>2018-07-01T09:16:25Z</time>
      </trkpt>
      <trkpt lat="45.93626" lon="4.69689">
        <ele>314</ele>
        <time>2018-07-01T09:16:45Z</time>
      </trkpt>
      <trkpt lat="45.93626" lon="4.69689">
        <ele>314</ele>
        <time>2018-07-01T09:17:05Z</time>
      </trkpt>
      <trkpt lat="45.93638" lon="4.69734">
        <ele>314</ele>
        <time>2018-07-01T09:17:26Z</time>
      </trkpt>
      <trkpt lat="45.93659" lon="4.69822">
        <ele>312</ele>
        <time>2018-07-01T09:17:47Z</time>
      </trkpt>
      <trkpt lat="45.93683" lon="4.69959">
        <ele>308</ele>
        <time>2018-07-01T09:18:08Z</time>
      </trkpt>
      <trkpt lat="45.93712" lon="4.7007">
        <ele>305</ele>
        <time>2018-07-01T09:18:28Z</time>
      </trkpt>
      <trkpt lat="45.93754" lon="4.70108">
        <ele>298</ele>
        <time>2018-07-01T09:18:48Z</time>
      </trkpt>
      <trkpt lat="45.93821" lon="4.70255">
        <ele>287</ele>
        <time>2018-07-01T09:19:09Z</time>
      </trkpt>
      <trkpt lat="45.93911" lon="4.70389">
        <ele>276</ele>
        <time>2018-07-01T09:19:30Z</time>
      </trkpt>
      <trkpt lat="45.94011" lon="4.70438">
        <ele>261</ele>
        <time>2018-07-01T09:19:50Z</time>
      </trkpt>
      <trkpt lat="45.94112" lon="4.70473">
        <ele>254</ele>
        <time>2018-07-01T09:20:11Z</time>
      </trkpt>
      <trkpt lat="45.94161" lon="4.70518">
        <ele>249</ele>
        <time>2018-07-01T09:20:31Z</time>
      </trkpt>
      <trkpt lat="45.94141" lon="4.70688">
        <ele>242</ele>
        <time>2018-07-01T09:20:52Z</time>
      </trkpt>
      <trkpt lat="45.94057" lon="4.70809">
        <ele>237</ele>
        <time>2018-07-01T09:21:13Z</time>
      </trkpt>
      <trkpt lat="45.94017" lon="4.7093">
        <ele>222</ele>
        <time>2018-07-01T09:21:33Z</time>
      </trkpt>
      <trkpt lat="45.94018" lon="4.70936">
        <ele>221</ele>
        <time>2018-07-01T09:21:54Z</time>
      </trkpt>
      <trkpt lat="45.94018" lon="4.70941">
        <ele>221</ele>
        <time>2018-07-01T09:22:14Z</time>
      </trkpt>
      <trkpt lat="45.94017" lon="4.70942">
        <ele>221</ele>
        <time>2018-07-01T09:22:35Z</time>
      </trkpt>
      <trkpt lat="45.94017" lon="4.70959">
        <ele>219</ele>
        <time>2018-07-01T09:22:56Z</time>
      </trkpt>
      <trkpt lat="45.94011" lon="4.71045">
        <ele>207</ele>
        <time>2018-07-01T09:23:16Z</time>
      </trkpt>
      <trkpt lat="45.94005" lon="4.71147">
        <ele>192</ele>
        <time>2018-07-01T09:23:37Z</time>
      </trkpt>
      <trkpt lat="45.94004" lon="4.71147">
        <ele>192</ele>
        <time>2018-07-01T09:23:58Z</time>
      </trkpt>
      <trkpt lat="45.93974" lon="4.71257">
        <ele>180</ele>
        <time>2018-07-01T09:24:18Z</time>
      </trkpt>
      <trkpt lat="45.93958" lon="4.71453">
        <ele>177</ele>
        <time>2018-07-01T09:24:39Z</time>
      </trkpt>
      <trkpt lat="45.9404" lon="4.71493">
        <ele>175</ele>
        <time>2018-07-01T09:24:59Z</time>
      </trkpt>
      <trkpt lat="45.94041" lon="4.71633">
        <ele>175</ele>
        <time>2018-07-01T09:25:20Z</time>
      </trkpt>
      <trkpt lat="45.94011" lon="4.71663">
        <ele>176</ele>
        <time>2018-07-01T09:25:41Z</time>
      </trkpt>
      <trkpt lat="45.94" lon="4.71787">
        <ele>172</ele>
        <time>2018-07-01T09:26:01Z</time>
      </trkpt>
      <trkpt lat="45.93969" lon="4.71896">
        <ele>172</ele>
        <time>2018-07-01T09:26:22Z</time>
      </trkpt>
      <trkpt lat="45.93914" lon="4.71978">
        <ele>171</ele>
        <time>2018-07-01T09:26:43Z</time>
      </trkpt>
      <trkpt lat="45.93852" lon="4.72046">
        <ele>172</ele>
        <time>2018-07-01T09:27:03Z</time>
      </trkpt>
      <trkpt lat="45.93805" lon="4.72145">
        <ele>173</ele>
        <time>2018-07-01T09:27:24Z</time>
      </trkpt>
      <trkpt lat="45.93815" lon="4.72161">
        <ele>172</ele>
        <time>2018-07-01T09:27:44Z</time>
      </trkpt>
      <trkpt lat="45.93793" lon="4.72126">
        <ele>173</ele>
        <time>2018-07-01T09:28:05Z</time>
      </trkpt>
      <trkpt lat="45.93813" lon="4.72198">
        <ele>172</ele>
        <time>2018-07-01T09:28:26Z</time>
      </trkpt>
      <trkpt lat="45.93755" lon="4.72287">
        <ele>172</ele>
        <time>2018-07-01T09:28:47Z</time>
      </trkpt>
      <trkpt lat="45.93713" lon="4.72366">
        <ele>172</ele>
        <time>2018-07-01T09:29:08Z</time>
      </trkpt>
      <trkpt lat="45.93766" lon="4.72439">
        <ele>171</ele>
        <time>2018-07-01T09:29:29Z</time>
      </trkpt>
      <trkpt lat="45.93834" lon="4.72519">
        <ele>174</ele>
        <time>2018-07-01T09:29:49Z</time>
      </trkpt>
      <trkpt lat="45.93907" lon="4.72591">
        <ele>174</ele>
        <time>2018-07-01T09:30:09Z</time>
      </trkpt>
      <trkpt lat="45.93985" lon="4.72655">
        <ele>174</ele>
        <time>2018-07-01T09:30:30Z</time>
      </trkpt>
      <trkpt lat="45.94055" lon="4.7272">
        <ele>172</ele>
        <time>2018-07-01T09:30:51Z</time>
      </trkpt>
      <trkpt lat="45.94121" lon="4.72778">
        <ele>171</ele>
        <time>2018-07-01T09:31:11Z</time>
      </trkpt>
      <trkpt lat="45.94192" lon="4.72862">
        <ele>169</ele>
        <time>2018-07-01T09:31:32Z</time>
      </trkpt>
      <trkpt lat="45.9426" lon="4.72855">
        <ele>169</ele>
        <time>2018-07-01T09:31:52Z</time>
      </trkpt>
      <trkpt lat="45.94345" lon="4.72811">
        <ele>167</ele>
        <time>2018-07-01T09:32:13Z</time>
      </trkpt>
      <trkpt lat="45.94421" lon="4.7279">
        <ele>168</ele>
        <time>2018-07-01T09:32:34Z</time>
      </trkpt>
      <trkpt lat="45.94442" lon="4.72699">
        <ele>172</ele>
        <time>2018-07-01T09:32:54Z</time>
      </trkpt>
      <trkpt lat="45.94518" lon="4.72639">
        <ele>172</ele>
        <time>2018-07-01T09:33:15Z</time>
      </trkpt>
      <trkpt lat="45.94557" lon="4.72585">
        <ele>171</ele>
        <time>2018-07-01T09:33:36Z</time>
      </trkpt>
      <trkpt lat="45.94622" lon="4.72587">
        <ele>170</ele>
        <time>2018-07-01T09:33:56Z</time>
      </trkpt>
      <trkpt lat="45.94708" lon="4.7256">
        <ele>171</ele>
        <time>2018-07-01T09:34:16Z</time>
      </trkpt>
      <trkpt lat="45.9479" lon="4.72596">
        <ele>174</ele>
        <time>2018-07-01T09:34:37Z</time>
      </trkpt>
      <trkpt lat="45.94878" lon="4.72632">
        <ele>173</ele>
        <time>2018-07-01T09:34:57Z</time>
      </trkpt>
      <trkpt lat="45.94956" lon="4.72671">
        <ele>173</ele>
        <time>2018-07-01T09:35:17Z</time>
      </trkpt>
      <trkpt lat="45.95016" lon="4.72703">
        <ele>170</ele>
        <time>2018-07-01T09:35:38Z</time>
      </trkpt>
      <trkpt lat="45.95069" lon="4.72744">
        <ele>170</ele>
        <time>2018-07-01T09:35:58Z</time>
      </trkpt>
      <trkpt lat="45.95095" lon="4.72768">
        <ele>171</ele>
        <time>2018-07-01T09:36:18Z</time>
      </trkpt>
    </trkseg>
  </trk>
</gpx>